Time;durP1;ratioP1;P1;durP2;ratioP2;P2;SDS_P1;SDS_P2;PMS_P1;PMS_P2;Temp;Humidity;BMP_temperature;BMP_pressure;BME280_temperature;BME280_humidity;BME280_pressure;Samples;Min_cycle;Max_cycle;Signal;HPM_P1;HPM_P2
2023/11/29 00:00:34;;;;;;;9.67;6.47;;;;;;;;;;2615133;54;20423;-74
2023/11/29 00:03:00;;;;;;;15.70;10.47;;;;;;;;;;2614387;54;20431;-75
2023/11/29 00:05:26;;;;;;;14.63;9.63;;;;;;;;;;2614751;46;20423;-77
2023/11/29 00:07:52;;;;;;;11.57;8.00;;;;;;;;;;2615895;39;20804;-76
2023/11/29 00:10:18;;;;;;;12.33;7.40;;;;;;;;;;2613579;54;20578;-75
2023/11/29 00:12:45;;;;;;;10.20;7.83;;;;;;;;;;2614747;46;20450;-76
2023/11/29 00:15:11;;;;;;;12.73;9.00;;;;;;;;;;2615084;39;20891;-75
2023/11/29 00:17:37;;;;;;;6.40;5.37;;;;;;;;;;2614374;39;20920;-77
2023/11/29 00:20:03;;;;;;;15.70;9.53;;;;;;;;;;2615457;54;20435;-76
2023/11/29 00:22:29;;;;;;;16.00;9.47;;;;;;;;;;2614854;54;20399;-75
2023/11/29 00:24:56;;;;;;;9.90;7.43;;;;;;;;;;2614369;39;20550;-75
2023/11/29 00:27:22;;;;;;;13.47;8.53;;;;;;;;;;2614490;47;20430;-74
2023/11/29 00:29:48;;;;;;;11.07;8.00;;;;;;;;;;2614168;54;20407;-76
2023/11/29 00:32:15;;;;;;;8.23;6.17;;;;;;;;;;2614432;39;20793;-73
2023/11/29 00:34:41;;;;;;;10.37;7.40;;;;;;;;;;2614863;31;20817;-74
2023/11/29 00:37:07;;;;;;;9.50;6.50;;;;;;;;;;2614823;54;20540;-75
2023/11/29 00:39:33;;;;;;;14.07;9.77;;;;;;;;;;2614438;39;21460;-75
2023/11/29 00:41:59;;;;;;;16.17;9.30;;;;;;;;;;2614525;54;20403;-73
2023/11/29 00:44:25;;;;;;;14.03;7.77;;;;;;;;;;2615245;39;20812;-74
2023/11/29 00:46:51;;;;;;;15.77;9.07;;;;;;;;;;2614442;54;20438;-74
2023/11/29 00:49:18;;;;;;;13.07;8.00;;;;;;;;;;2615107;47;20438;-74
2023/11/29 00:51:44;;;;;;;11.87;8.10;;;;;;;;;;2615990;47;20438;-75
2023/11/29 00:54:11;;;;;;;16.13;10.00;;;;;;;;;;2615362;39;20781;-75
2023/11/29 00:56:38;;;;;;;10.60;6.83;;;;;;;;;;2614328;54;20406;-73
2023/11/29 00:59:04;;;;;;;10.87;6.20;;;;;;;;;;2614463;54;20665;-74
2023/11/29 01:01:30;;;;;;;15.80;9.57;;;;;;;;;;2614335;39;20783;-75
2023/11/29 01:03:56;;;;;;;13.20;8.80;;;;;;;;;;2614514;54;20415;-75
2023/11/29 01:06:22;;;;;;;14.37;8.27;;;;;;;;;;2614395;54;20928;-74
2023/11/29 01:08:48;;;;;;;8.27;6.10;;;;;;;;;;2613958;54;20434;-73
2023/11/29 01:11:14;;;;;;;8.47;6.37;;;;;;;;;;2614563;54;20412;-74
2023/11/29 01:13:40;;;;;;;8.70;6.90;;;;;;;;;;2614335;54;20403;-78
2023/11/29 01:16:07;;;;;;;10.43;7.63;;;;;;;;;;2614483;54;20418;-78
2023/11/29 01:18:33;;;;;;;8.73;7.13;;;;;;;;;;2614585;47;20419;-77
2023/11/29 01:20:59;;;;;;;12.47;6.80;;;;;;;;;;2614509;47;20403;-78
2023/11/29 01:23:25;;;;;;;11.07;8.20;;;;;;;;;;2614307;54;20398;-74
2023/11/29 01:25:52;;;;;;;9.37;7.87;;;;;;;;;;2614666;39;20848;-73
2023/11/29 01:28:18;;;;;;;11.40;8.13;;;;;;;;;;2614188;54;20461;-73
2023/11/29 01:30:44;;;;;;;8.30;7.17;;;;;;;;;;2614276;54;20407;-76
2023/11/29 01:33:10;;;;;;;15.30;7.60;;;;;;;;;;2614356;54;20390;-76
2023/11/29 01:35:36;;;;;;;6.30;5.70;;;;;;;;;;2614054;54;20400;-75
2023/11/29 01:38:02;;;;;;;6.23;4.67;;;;;;;;;;2613987;54;20427;-73
2023/11/29 01:40:29;;;;;;;15.23;8.57;;;;;;;;;;2614019;54;20426;-74
2023/11/29 01:42:55;;;;;;;8.70;6.27;;;;;;;;;;2614214;47;20415;-72
2023/11/29 01:45:21;;;;;;;10.07;6.37;;;;;;;;;;2614388;39;20760;-74
2023/11/29 01:47:47;;;;;;;15.17;9.70;;;;;;;;;;2613234;54;20430;-75
2023/11/29 01:50:16;;;;;;;5.80;5.00;;;;;;;;;;2613748;54;20430;-74
2023/11/29 01:52:43;;;;;;;13.20;9.37;;;;;;;;;;2613914;47;20423;-75
2023/11/29 01:55:12;;;;;;;8.53;7.50;;;;;;;;;;2614841;54;20403;-76
2023/11/29 01:57:38;;;;;;;13.67;10.00;;;;;;;;;;2614251;54;20426;-76
2023/11/29 02:00:04;;;;;;;10.83;8.97;;;;;;;;;;2613405;54;20420;-75
2023/11/29 02:02:30;;;;;;;12.03;7.73;;;;;;;;;;2613672;54;20406;-75
2023/11/29 02:04:56;;;;;;;9.67;7.40;;;;;;;;;;2614190;54;20412;-74
2023/11/29 02:07:23;;;;;;;10.83;7.47;;;;;;;;;;2614519;54;20402;-76
2023/11/29 02:09:49;;;;;;;10.80;7.37;;;;;;;;;;2614201;54;20402;-75
2023/11/29 02:12:15;;;;;;;11.23;7.30;;;;;;;;;;2614250;54;20406;-76
2023/11/29 02:14:44;;;;;;;11.00;8.10;;;;;;;;;;2613669;54;20398;-74
2023/11/29 02:17:10;;;;;;;8.13;5.80;;;;;;;;;;2613969;54;20505;-75
2023/11/29 02:19:37;;;;;;;11.10;6.23;;;;;;;;;;2613469;54;20420;-75
2023/11/29 02:22:03;;;;;;;8.90;6.50;;;;;;;;;;2614352;47;20427;-75
2023/11/29 02:24:33;;;;;;;11.80;8.80;;;;;;;;;;2614363;54;20511;-76
2023/11/29 02:26:59;;;;;;;8.60;6.03;;;;;;;;;;2613969;54;20979;-76
2023/11/29 02:29:25;;;;;;;5.37;4.47;;;;;;;;;;2613283;54;20412;-76
2023/11/29 02:31:51;;;;;;;9.30;6.17;;;;;;;;;;2613526;54;20494;-76
2023/11/29 02:34:17;;;;;;;7.03;5.70;;;;;;;;;;2614442;54;20447;-77
2023/11/29 02:36:43;;;;;;;10.97;7.00;;;;;;;;;;2613868;54;20430;-76
2023/11/29 02:39:09;;;;;;;11.20;7.67;;;;;;;;;;2614278;54;20935;-77
2023/11/29 02:41:38;;;;;;;12.20;7.93;;;;;;;;;;2613983;54;20458;-73
2023/11/29 02:44:05;;;;;;;11.70;7.53;;;;;;;;;;2613810;54;20410;-72
2023/11/29 02:46:31;;;;;;;9.40;6.67;;;;;;;;;;2614048;54;20380;-74
2023/11/29 02:48:57;;;;;;;15.20;10.07;;;;;;;;;;2614318;46;20423;-75
2023/11/29 02:51:23;;;;;;;15.37;9.77;;;;;;;;;;2613674;54;20425;-76
2023/11/29 02:53:50;;;;;;;13.07;8.40;;;;;;;;;;2614049;54;20596;-75
2023/11/29 02:56:16;;;;;;;9.50;7.33;;;;;;;;;;2614058;54;20416;-73
2023/11/29 02:58:42;;;;;;;10.93;7.90;;;;;;;;;;2613908;54;20406;-75
2023/11/29 03:01:08;;;;;;;15.73;9.40;;;;;;;;;;2614582;54;20406;-74
2023/11/29 03:03:34;;;;;;;13.67;9.00;;;;;;;;;;2615024;47;20447;-74
2023/11/29 03:06:01;;;;;;;13.93;8.00;;;;;;;;;;2615197;54;20540;-73
2023/11/29 03:08:27;;;;;;;11.77;8.30;;;;;;;;;;2614034;54;20398;-73
2023/11/29 03:10:54;;;;;;;9.17;7.40;;;;;;;;;;2614811;54;20466;-74
2023/11/29 03:13:20;;;;;;;11.63;6.87;;;;;;;;;;2615008;54;20458;-74
2023/11/29 03:15:46;;;;;;;15.03;9.93;;;;;;;;;;2615172;54;20419;-74
2023/11/29 03:18:12;;;;;;;13.07;8.27;;;;;;;;;;2613774;54;21005;-74
2023/11/29 03:20:38;;;;;;;15.70;8.80;;;;;;;;;;2614163;54;20928;-72
2023/11/29 03:23:04;;;;;;;11.10;8.03;;;;;;;;;;2614848;54;20420;-73
2023/11/29 03:25:30;;;;;;;8.80;5.80;;;;;;;;;;2615655;39;20814;-73
2023/11/29 03:27:56;;;;;;;13.80;9.80;;;;;;;;;;2614043;54;20967;-74
2023/11/29 03:30:22;;;;;;;10.40;7.37;;;;;;;;;;2613523;54;20399;-74
2023/11/29 03:32:48;;;;;;;12.00;8.30;;;;;;;;;;2614398;39;20840;-74
2023/11/29 03:35:14;;;;;;;17.10;10.17;;;;;;;;;;2614304;54;20417;-70
2023/11/29 03:37:40;;;;;;;7.67;5.80;;;;;;;;;;2614910;54;20401;-70
2023/11/29 03:40:07;;;;;;;12.77;8.90;;;;;;;;;;2614263;54;20432;-71
2023/11/29 03:42:33;;;;;;;15.60;9.17;;;;;;;;;;2614992;54;20387;-70
2023/11/29 03:45:01;;;;;;;18.13;8.87;;;;;;;;;;2615362;54;20392;-79
2023/11/29 03:47:27;;;;;;;7.77;4.67;;;;;;;;;;2615088;54;20415;-79
2023/11/29 03:49:53;;;;;;;16.87;9.50;;;;;;;;;;2614503;54;20491;-80
2023/11/29 03:52:20;;;;;;;9.50;5.37;;;;;;;;;;2615090;54;20383;-77
2023/11/29 03:54:47;;;;;;;12.67;7.40;;;;;;;;;;2614705;54;20427;-78
2023/11/29 03:57:13;;;;;;;10.30;6.97;;;;;;;;;;2615263;54;20387;-76
2023/11/29 03:59:39;;;;;;;15.33;7.03;;;;;;;;;;2614626;39;20995;-77
2023/11/29 04:02:05;;;;;;;10.27;6.70;;;;;;;;;;2613673;54;20405;-75
2023/11/29 04:04:31;;;;;;;13.13;7.37;;;;;;;;;;2614888;46;20418;-76
2023/11/29 04:07:00;;;;;;;15.20;9.80;;;;;;;;;;2615016;54;20423;-78
2023/11/29 04:09:26;;;;;;;7.33;5.80;;;;;;;;;;2614607;54;20462;-78
2023/11/29 04:11:52;;;;;;;18.27;11.40;;;;;;;;;;2614368;54;20421;-80
2023/11/29 04:14:19;;;;;;;19.93;10.77;;;;;;;;;;2614955;54;20590;-75
2023/11/29 04:16:45;;;;;;;17.13;11.50;;;;;;;;;;2615232;54;20399;-76
2023/11/29 04:19:11;;;;;;;18.27;12.13;;;;;;;;;;2614881;54;20399;-75
2023/11/29 04:21:37;;;;;;;21.33;12.50;;;;;;;;;;2615069;39;20849;-77
2023/11/29 04:24:03;;;;;;;17.40;9.50;;;;;;;;;;2615310;54;20407;-76
2023/11/29 04:26:39;;;;;;;15.37;9.67;;;;;;;;;;2614904;54;20412;-77
2023/11/29 04:29:06;;;;;;;19.93;11.80;;;;;;;;;;2614506;54;20422;-76
2023/11/29 04:31:33;;;;;;;14.53;8.37;;;;;;;;;;2615576;54;20423;-76
2023/11/29 04:34:00;;;;;;;13.30;8.10;;;;;;;;;;2614266;47;20421;-75
2023/11/29 04:36:27;;;;;;;11.17;7.90;;;;;;;;;;2614704;54;20400;-77
2023/11/29 04:38:53;;;;;;;9.70;6.73;;;;;;;;;;2614904;54;20482;-77
2023/11/29 04:41:19;;;;;;;14.10;8.97;;;;;;;;;;2614704;54;20501;-77
2023/11/29 04:43:46;;;;;;;10.73;6.53;;;;;;;;;;2614526;54;20406;-76
2023/11/29 04:46:12;;;;;;;18.73;12.37;;;;;;;;;;2614541;54;20510;-74
2023/11/29 04:48:38;;;;;;;17.50;11.27;;;;;;;;;;2614438;39;21257;-77
2023/11/29 04:51:04;;;;;;;21.03;11.83;;;;;;;;;;2614780;54;20538;-74
2023/11/29 04:53:30;;;;;;;10.30;6.50;;;;;;;;;;2614572;54;20427;-73
2023/11/29 04:55:56;;;;;;;11.80;8.23;;;;;;;;;;2614237;47;20447;-76
2023/11/29 04:58:23;;;;;;;14.50;9.10;;;;;;;;;;2614459;54;20435;-75
2023/11/29 05:00:49;;;;;;;17.67;11.80;;;;;;;;;;2614202;54;20423;-74
2023/11/29 05:03:15;;;;;;;6.93;5.90;;;;;;;;;;2614818;54;20435;-74
2023/11/29 05:05:42;;;;;;;12.57;8.80;;;;;;;;;;2613194;47;20454;-73
2023/11/29 05:08:09;;;;;;;12.67;9.10;;;;;;;;;;2614094;54;20433;-72
2023/11/29 05:10:35;;;;;;;13.40;7.43;;;;;;;;;;2614952;54;20533;-74
2023/11/29 05:13:02;;;;;;;15.73;9.43;;;;;;;;;;2614944;54;20422;-74
2023/11/29 05:15:28;;;;;;;12.47;8.13;;;;;;;;;;2614007;54;20429;-76
2023/11/29 05:17:55;;;;;;;15.83;9.63;;;;;;;;;;2614600;54;21366;-75
2023/11/29 05:20:21;;;;;;;12.67;7.93;;;;;;;;;;2613922;47;20591;-76
2023/11/29 05:22:47;;;;;;;14.97;10.30;;;;;;;;;;2615313;54;20423;-74
2023/11/29 05:25:14;;;;;;;12.70;8.57;;;;;;;;;;2614452;54;20434;-73
2023/11/29 05:27:40;;;;;;;18.70;10.03;;;;;;;;;;2615163;39;20781;-73
2023/11/29 05:30:07;;;;;;;16.30;9.60;;;;;;;;;;2614946;54;20511;-73
2023/11/29 05:32:33;;;;;;;16.80;10.53;;;;;;;;;;2614786;47;20406;-71
2023/11/29 05:34:59;;;;;;;18.57;10.50;;;;;;;;;;2614289;54;20491;-73
2023/11/29 05:37:25;;;;;;;18.93;12.00;;;;;;;;;;2613846;47;20435;-74
2023/11/29 05:39:52;;;;;;;13.30;7.83;;;;;;;;;;2614264;54;20456;-74
2023/11/29 05:42:18;;;;;;;12.93;8.70;;;;;;;;;;2614037;51;20423;-73
2023/11/29 05:44:47;;;;;;;14.93;10.70;;;;;;;;;;2614777;39;20893;-73
2023/11/29 05:47:13;;;;;;;12.43;8.87;;;;;;;;;;2614053;39;20854;-74
2023/11/29 05:49:39;;;;;;;15.90;11.50;;;;;;;;;;2613552;54;20431;-76
2023/11/29 05:52:05;;;;;;;12.90;9.43;;;;;;;;;;2614008;47;20423;-77
2023/11/29 05:54:31;;;;;;;13.00;9.50;;;;;;;;;;2614187;47;20420;-70
2023/11/29 05:56:57;;;;;;;6.77;6.10;;;;;;;;;;2613814;46;21039;-69
2023/11/29 05:59:24;;;;;;;15.57;10.40;;;;;;;;;;2614413;39;20831;-69
2023/11/29 06:01:51;;;;;;;13.50;9.17;;;;;;;;;;2614383;39;21118;-68
2023/11/29 06:04:18;;;;;;;15.73;9.77;;;;;;;;;;2613718;54;20458;-76
2023/11/29 06:06:44;;;;;;;17.27;9.17;;;;;;;;;;2613976;54;20527;-78
2023/11/29 06:09:10;;;;;;;17.70;11.77;;;;;;;;;;2613643;54;20388;-78
2023/11/29 06:11:36;;;;;;;17.47;10.57;;;;;;;;;;2614560;39;20845;-77
2023/11/29 06:14:04;;;;;;;11.87;6.87;;;;;;;;;;2614947;54;20946;-68
2023/11/29 06:16:30;;;;;;;21.73;12.50;;;;;;;;;;2613736;31;21022;-69
2023/11/29 06:18:56;;;;;;;17.73;12.37;;;;;;;;;;2613971;54;20450;-68
2023/11/29 06:21:22;;;;;;;15.67;9.33;;;;;;;;;;2614319;54;20403;-69
2023/11/29 06:23:48;;;;;;;12.93;8.33;;;;;;;;;;2614102;54;20400;-69
2023/11/29 06:26:14;;;;;;;19.30;7.60;;;;;;;;;;2614068;54;20450;-69
2023/11/29 06:28:41;;;;;;;12.97;7.47;;;;;;;;;;2614298;54;20424;-70
2023/11/29 06:31:07;;;;;;;15.03;7.10;;;;;;;;;;2614173;54;20461;-69
2023/11/29 06:33:33;;;;;;;14.50;9.50;;;;;;;;;;2615106;54;20406;-69
2023/11/29 06:36:01;;;;;;;19.87;11.57;;;;;;;;;;2614514;47;20427;-69
2023/11/29 06:38:27;;;;;;;11.77;8.03;;;;;;;;;;2614437;54;20379;-71
2023/11/29 06:40:53;;;;;;;13.60;8.30;;;;;;;;;;2615057;54;20462;-70
2023/11/29 06:43:19;;;;;;;13.83;8.37;;;;;;;;;;2614129;54;21046;-70
2023/11/29 06:45:46;;;;;;;17.07;9.87;;;;;;;;;;2614961;54;20439;-70
2023/11/29 06:48:13;;;;;;;17.57;10.47;;;;;;;;;;2614441;54;20394;-69
2023/11/29 06:50:39;;;;;;;11.27;7.23;;;;;;;;;;2614865;54;20397;-70
2023/11/29 06:53:07;;;;;;;21.80;12.43;;;;;;;;;;2614743;46;20455;-70
2023/11/29 06:55:33;;;;;;;14.17;9.93;;;;;;;;;;2615194;39;20501;-69
2023/11/29 06:57:59;;;;;;;18.57;11.57;;;;;;;;;;2614452;54;20462;-69
2023/11/29 07:00:26;;;;;;;14.33;9.80;;;;;;;;;;2612551;51;20442;-70
2023/11/29 07:02:52;;;;;;;8.70;4.60;;;;;;;;;;2612791;47;20418;-69
2023/11/29 07:05:18;;;;;;;13.00;9.63;;;;;;;;;;2615022;54;20418;-70
2023/11/29 07:07:46;;;;;;;14.90;10.07;;;;;;;;;;2614365;47;20431;-70
2023/11/29 07:10:13;;;;;;;14.03;8.83;;;;;;;;;;2614249;54;20534;-70
2023/11/29 07:12:39;;;;;;;21.67;11.33;;;;;;;;;;2615309;31;20950;-70
2023/11/29 07:15:06;;;;;;;17.03;10.30;;;;;;;;;;2613955;54;20402;-70
2023/11/29 07:17:32;;;;;;;20.33;9.73;;;;;;;;;;2611359;47;20463;-69
2023/11/29 07:20:00;;;;;;;19.13;11.70;;;;;;;;;;2613873;47;20442;-70
2023/11/29 07:22:26;;;;;;;12.97;9.10;;;;;;;;;;2612365;47;20422;-69
2023/11/29 07:24:53;;;;;;;16.07;10.80;;;;;;;;;;2614005;54;20394;-73
2023/11/29 07:27:20;;;;;;;22.83;13.13;;;;;;;;;;2614509;47;20423;-74
2023/11/29 07:29:46;;;;;;;16.40;9.00;;;;;;;;;;2614603;54;20411;-74
2023/11/29 07:32:15;;;;;;;12.13;7.60;;;;;;;;;;2613852;39;20492;-74
2023/11/29 07:34:47;;;;;;;23.57;11.73;;;;;;;;;;2614384;54;20392;-74
2023/11/29 07:37:14;;;;;;;14.40;10.10;;;;;;;;;;2614005;54;20450;-73
2023/11/29 07:39:40;;;;;;;16.43;10.03;;;;;;;;;;2614506;47;20451;-76
2023/11/29 07:42:07;;;;;;;23.50;11.37;;;;;;;;;;2614284;47;20494;-74
2023/11/29 07:44:33;;;;;;;9.50;8.50;;;;;;;;;;2614146;54;20446;-74
2023/11/29 07:46:59;;;;;;;11.53;8.83;;;;;;;;;;2613306;54;20435;-73
2023/11/29 07:49:25;;;;;;;22.93;12.90;;;;;;;;;;2613540;54;20427;-74
2023/11/29 07:51:51;;;;;;;17.20;11.87;;;;;;;;;;2614280;54;20419;-74
2023/11/29 07:54:17;;;;;;;19.13;11.53;;;;;;;;;;2613893;54;20467;-74
2023/11/29 07:56:43;;;;;;;17.50;11.13;;;;;;;;;;2612797;54;20901;-73
2023/11/29 07:59:09;;;;;;;21.10;12.87;;;;;;;;;;2613553;54;20427;-73
2023/11/29 08:01:37;;;;;;;22.30;12.53;;;;;;;;;;2614100;47;20446;-74
2023/11/29 08:04:04;;;;;;;14.73;11.53;;;;;;;;;;2613477;54;20435;-75
2023/11/29 08:06:31;;;;;;;13.50;8.87;;;;;;;;;;2613713;54;20670;-75
2023/11/29 08:08:57;;;;;;;17.10;11.93;;;;;;;;;;2613597;54;20427;-75
2023/11/29 08:11:24;;;;;;;31.37;11.20;;;;;;;;;;2615051;54;20546;-73
2023/11/29 08:13:50;;;;;;;14.10;10.13;;;;;;;;;;2614357;54;20410;-73
2023/11/29 08:16:17;;;;;;;12.67;7.10;;;;;;;;;;2614883;54;20443;-73
2023/11/29 08:18:43;;;;;;;13.00;7.80;;;;;;;;;;2615002;54;20419;-72
2023/11/29 08:21:10;;;;;;;12.37;9.50;;;;;;;;;;2614184;46;20420;-74
2023/11/29 08:23:36;;;;;;;15.40;11.40;;;;;;;;;;2614979;54;20423;-76
2023/11/29 08:26:02;;;;;;;16.37;10.80;;;;;;;;;;2614874;54;20432;-74
2023/11/29 08:28:28;;;;;;;14.90;8.63;;;;;;;;;;2614777;47;20399;-75
2023/11/29 08:30:54;;;;;;;10.57;8.70;;;;;;;;;;2614767;39;20941;-76
2023/11/29 08:33:20;;;;;;;11.53;8.50;;;;;;;;;;2615174;39;20926;-69
2023/11/29 08:35:49;;;;;;;12.87;9.33;;;;;;;;;;2614300;54;20436;-69
2023/11/29 08:38:15;;;;;;;10.23;6.67;;;;;;;;;;2615075;54;20435;-69
2023/11/29 08:40:42;;;;;;;15.03;9.20;;;;;;;;;;2614299;54;20455;-69
2023/11/29 08:43:08;;;;;;;11.07;9.23;;;;;;;;;;2614546;54;20426;-68
2023/11/29 08:45:34;;;;;;;12.57;8.97;;;;;;;;;;2613976;46;20447;-70
2023/11/29 08:48:00;;;;;;;8.33;6.63;;;;;;;;;;2613616;54;20398;-70
2023/11/29 08:50:26;;;;;;;12.50;8.60;;;;;;;;;;2614451;54;20403;-69
2023/11/29 08:52:53;;;;;;;10.70;8.77;;;;;;;;;;2613824;54;20430;-70
2023/11/29 08:55:20;;;;;;;11.73;9.13;;;;;;;;;;2613891;54;20415;-69
2023/11/29 08:57:46;;;;;;;17.00;10.30;;;;;;;;;;2613429;54;20424;-70
2023/11/29 09:00:12;;;;;;;16.83;10.50;;;;;;;;;;2614490;54;20437;-69
2023/11/29 09:02:38;;;;;;;13.20;9.10;;;;;;;;;;2613895;54;20406;-68
2023/11/29 09:05:05;;;;;;;9.10;7.10;;;;;;;;;;2614544;54;20418;-69
2023/11/29 09:07:31;;;;;;;11.40;9.10;;;;;;;;;;2615141;39;20793;-69
2023/11/29 09:10:05;;;;;;;12.97;8.07;;;;;;;;;;2613507;54;21368;-69
2023/11/29 09:12:31;;;;;;;12.50;9.30;;;;;;;;;;2614200;54;20470;-69
2023/11/29 09:14:57;;;;;;;13.63;10.60;;;;;;;;;;2614178;54;21184;-69
2023/11/29 09:17:24;;;;;;;12.30;9.07;;;;;;;;;;2614990;54;20397;-69
2023/11/29 09:19:50;;;;;;;10.37;7.93;;;;;;;;;;2613817;47;20449;-69
2023/11/29 09:22:17;;;;;;;6.23;5.13;;;;;;;;;;2614250;54;20427;-70
2023/11/29 09:24:44;;;;;;;12.27;10.17;;;;;;;;;;2613802;54;20431;-69
2023/11/29 09:27:11;;;;;;;14.53;10.23;;;;;;;;;;2614079;54;20438;-70
2023/11/29 09:29:38;;;;;;;9.33;6.57;;;;;;;;;;2614737;46;20446;-70
2023/11/29 09:32:04;;;;;;;17.17;7.50;;;;;;;;;;2614104;54;20482;-70
2023/11/29 09:34:31;;;;;;;10.73;7.03;;;;;;;;;;2614343;54;20406;-75
2023/11/29 09:37:00;;;;;;;10.47;6.00;;;;;;;;;;2614303;47;20422;-74
2023/11/29 09:39:29;;;;;;;10.63;8.07;;;;;;;;;;2614090;47;20399;-74
2023/11/29 09:42:02;;;;;;;8.03;7.10;;;;;;;;;;2614401;54;20437;-74
2023/11/29 09:44:30;;;;;;;14.37;9.43;;;;;;;;;;2613208;54;20428;-71
2023/11/29 09:46:57;;;;;;;15.93;10.20;;;;;;;;;;2613700;54;20418;-71
2023/11/29 09:49:24;;;;;;;14.20;9.00;;;;;;;;;;2613949;54;20403;-71
2023/11/29 09:51:50;;;;;;;11.70;9.10;;;;;;;;;;2613986;54;20471;-71
2023/11/29 09:54:16;;;;;;;17.43;10.70;;;;;;;;;;2614491;54;20403;-68
2023/11/29 09:56:42;;;;;;;10.80;8.00;;;;;;;;;;2614192;54;20406;-68
2023/11/29 09:59:08;;;;;;;7.27;6.37;;;;;;;;;;2613436;54;20980;-68
2023/11/29 10:01:38;;;;;;;18.03;11.60;;;;;;;;;;2613523;54;20427;-68
2023/11/29 10:04:05;;;;;;;11.53;9.50;;;;;;;;;;2613391;54;20437;-68
2023/11/29 10:06:31;;;;;;;12.07;9.17;;;;;;;;;;2612961;54;20418;-69
2023/11/29 10:08:58;;;;;;;8.53;7.50;;;;;;;;;;2612994;54;20439;-69
2023/11/29 10:11:25;;;;;;;10.63;7.80;;;;;;;;;;2613296;54;20411;-67
2023/11/29 10:13:52;;;;;;;16.00;11.53;;;;;;;;;;2612145;54;20396;-68
2023/11/29 10:16:20;;;;;;;15.60;10.90;;;;;;;;;;2614057;54;20402;-69
2023/11/29 10:18:49;;;;;;;13.70;10.67;;;;;;;;;;2613864;39;20837;-69
2023/11/29 10:21:15;;;;;;;14.80;9.80;;;;;;;;;;2614241;54;20438;-68
2023/11/29 10:23:44;;;;;;;14.10;12.50;;;;;;;;;;2613813;54;20403;-68
2023/11/29 10:26:11;;;;;;;16.07;8.70;;;;;;;;;;2613732;54;20391;-69
2023/11/29 10:28:37;;;;;;;13.20;9.43;;;;;;;;;;2613448;54;20410;-69
2023/11/29 10:31:04;;;;;;;13.70;9.60;;;;;;;;;;2613575;54;20447;-69
2023/11/29 10:33:33;;;;;;;13.50;10.50;;;;;;;;;;2614194;39;20778;-69
2023/11/29 10:36:03;;;;;;;16.47;10.80;;;;;;;;;;2613086;54;20415;-69
2023/11/29 10:38:31;;;;;;;13.33;10.57;;;;;;;;;;2614381;39;20955;-69
2023/11/29 10:40:57;;;;;;;15.00;12.47;;;;;;;;;;2614055;54;20510;-69
2023/11/29 10:43:24;;;;;;;18.43;10.90;;;;;;;;;;2613039;54;20411;-73
2023/11/29 10:45:53;;;;;;;13.33;9.53;;;;;;;;;;2614065;54;20410;-72
2023/11/29 10:48:25;;;;;;;15.90;11.10;;;;;;;;;;2614049;54;20411;-72
2023/11/29 10:50:51;;;;;;;17.27;12.50;;;;;;;;;;2614208;54;20395;-73
2023/11/29 10:53:18;;;;;;;12.20;8.60;;;;;;;;;;2614625;31;20892;-72
2023/11/29 10:55:45;;;;;;;13.77;9.73;;;;;;;;;;2612939;54;20403;-72
2023/11/29 10:58:14;;;;;;;13.00;10.47;;;;;;;;;;2612580;54;20415;-73
2023/11/29 11:00:44;;;;;;;18.33;12.40;;;;;;;;;;2612557;54;20435;-72
2023/11/29 11:03:30;;;;;;;13.67;10.50;;;;;;;;;;2614039;54;20422;-72
2023/11/29 11:06:17;;;;;;;7.60;5.97;;;;;;;;;;2614162;54;20495;-72
2023/11/29 11:08:43;;;;;;;11.37;9.30;;;;;;;;;;2614076;54;20442;-74
2023/11/29 11:11:09;;;;;;;15.27;10.47;;;;;;;;;;2613729;47;20403;-73
2023/11/29 11:13:36;;;;;;;18.00;11.57;;;;;;;;;;2613240;54;21146;-73
2023/11/29 11:16:02;;;;;;;10.03;7.13;;;;;;;;;;2614432;39;20814;-73
2023/11/29 11:18:30;;;;;;;13.27;9.30;;;;;;;;;;2614247;54;21326;-74
2023/11/29 11:20:56;;;;;;;16.40;13.47;;;;;;;;;;2615298;39;20802;-71
2023/11/29 11:23:24;;;;;;;15.20;11.00;;;;;;;;;;2614494;54;20410;-73
2023/11/29 11:25:57;;;;;;;14.43;10.57;;;;;;;;;;2614584;54;21008;-72
2023/11/29 11:28:33;;;;;;;13.70;9.20;;;;;;;;;;2614240;54;20431;-74
2023/11/29 11:31:03;;;;;;;12.83;11.17;;;;;;;;;;2613833;47;20427;-73
2023/11/29 11:33:52;;;;;;;15.00;11.10;;;;;;;;;;2614417;54;20406;-73
2023/11/29 11:36:21;;;;;;;17.23;10.03;;;;;;;;;;2612765;54;20443;-73
2023/11/29 11:38:48;;;;;;;15.43;10.60;;;;;;;;;;2614561;54;20390;-72
2023/11/29 11:41:15;;;;;;;8.73;7.80;;;;;;;;;;2614307;54;20481;-72
2023/11/29 11:43:41;;;;;;;12.10;8.90;;;;;;;;;;2614054;54;20471;-71
2023/11/29 11:46:07;;;;;;;13.13;9.20;;;;;;;;;;2614709;54;20470;-72
2023/11/29 11:48:33;;;;;;;12.10;8.40;;;;;;;;;;2614117;54;20387;-72
2023/11/29 11:51:00;;;;;;;18.47;10.00;;;;;;;;;;2614817;39;20883;-73
2023/11/29 11:53:26;;;;;;;9.90;7.13;;;;;;;;;;2612931;54;20439;-71
2023/11/29 11:55:52;;;;;;;13.33;7.10;;;;;;;;;;2614373;54;20394;-72
2023/11/29 11:58:19;;;;;;;12.50;7.20;;;;;;;;;;2613332;54;20407;-72
2023/11/29 12:00:48;;;;;;;8.77;7.87;;;;;;;;;;2614366;54;20404;-73
2023/11/29 12:03:15;;;;;;;13.53;8.60;;;;;;;;;;2614233;47;20431;-73
2023/11/29 12:05:42;;;;;;;11.70;9.07;;;;;;;;;;2614669;54;20521;-73
2023/11/29 12:08:09;;;;;;;15.83;9.07;;;;;;;;;;2613786;47;20394;-72
2023/11/29 12:10:35;;;;;;;14.57;9.03;;;;;;;;;;2614586;54;20415;-72
2023/11/29 12:13:01;;;;;;;12.50;9.70;;;;;;;;;;2614434;39;20978;-72
2023/11/29 12:15:30;;;;;;;12.17;8.40;;;;;;;;;;2614307;54;20411;-73
2023/11/29 12:17:58;;;;;;;16.97;12.63;;;;;;;;;;2615111;54;20403;-74
2023/11/29 12:20:25;;;;;;;12.30;6.93;;;;;;;;;;2614380;54;20455;-74
2023/11/29 12:22:51;;;;;;;11.60;10.10;;;;;;;;;;2613984;54;20434;-74
2023/11/29 12:25:21;;;;;;;10.33;9.23;;;;;;;;;;2613063;54;20543;-73
2023/11/29 12:27:50;;;;;;;11.33;8.83;;;;;;;;;;2613410;54;20418;-74
2023/11/29 12:30:17;;;;;;;9.83;8.27;;;;;;;;;;2614438;54;20437;-74
2023/11/29 12:32:43;;;;;;;16.30;9.23;;;;;;;;;;2614436;54;20419;-73
2023/11/29 12:35:10;;;;;;;17.57;11.77;;;;;;;;;;2614296;54;20917;-74
2023/11/29 12:37:42;;;;;;;11.13;9.40;;;;;;;;;;2613821;47;20402;-73
2023/11/29 12:40:15;;;;;;;11.73;10.40;;;;;;;;;;2613228;47;20433;-73
2023/11/29 12:42:41;;;;;;;10.97;9.50;;;;;;;;;;2614644;54;20417;-74
2023/11/29 12:45:07;;;;;;;15.07;9.63;;;;;;;;;;2613646;54;20407;-73
2023/11/29 12:47:33;;;;;;;11.93;7.73;;;;;;;;;;2613925;47;20420;-73
2023/11/29 12:49:59;;;;;;;9.00;8.03;;;;;;;;;;2613637;54;21297;-73
2023/11/29 12:52:26;;;;;;;10.57;8.07;;;;;;;;;;2614408;54;20500;-73
2023/11/29 12:54:52;;;;;;;14.80;7.90;;;;;;;;;;2613106;54;20387;-74
2023/11/29 12:57:18;;;;;;;9.30;7.20;;;;;;;;;;2614052;54;20429;-74
2023/11/29 12:59:44;;;;;;;12.70;6.83;;;;;;;;;;2613621;54;21222;-74
2023/11/29 13:02:10;;;;;;;12.03;8.20;;;;;;;;;;2613136;54;20421;-74
2023/11/29 13:04:36;;;;;;;17.63;9.33;;;;;;;;;;2613901;54;20991;-79
2023/11/29 13:07:02;;;;;;;8.87;7.53;;;;;;;;;;2614447;54;20395;-78
2023/11/29 13:09:30;;;;;;;10.73;7.47;;;;;;;;;;2613629;54;20411;-77
2023/11/29 13:11:57;;;;;;;7.50;6.43;;;;;;;;;;2614875;54;20407;-77
2023/11/29 13:14:23;;;;;;;10.00;8.13;;;;;;;;;;2614036;39;21405;-78
2023/11/29 13:16:50;;;;;;;9.30;8.40;;;;;;;;;;2614439;54;20431;-78
2023/11/29 13:19:16;;;;;;;11.60;8.00;;;;;;;;;;2611131;47;20428;-77
2023/11/29 13:21:44;;;;;;;11.43;8.60;;;;;;;;;;2614471;54;20388;-78
2023/11/29 13:24:10;;;;;;;10.30;7.67;;;;;;;;;;2615074;54;20395;-82
2023/11/29 13:26:38;;;;;;;12.27;9.10;;;;;;;;;;2614729;47;20535;-83
2023/11/29 13:29:04;;;;;;;14.70;7.50;;;;;;;;;;2615847;54;21718;-83
2023/11/29 13:31:30;;;;;;;16.03;11.43;;;;;;;;;;2615972;54;20436;-82
2023/11/29 13:33:56;;;;;;;20.50;12.43;;;;;;;;;;2616144;47;20427;-85
2023/11/29 13:36:23;;;;;;;15.07;12.20;;;;;;;;;;2614929;47;20414;-84
2023/11/29 13:38:49;;;;;;;12.13;9.60;;;;;;;;;;2614718;54;20415;-85
2023/11/29 13:41:15;;;;;;;11.37;10.17;;;;;;;;;;2613994;54;20456;-84
2023/11/29 13:43:41;;;;;;;10.20;8.60;;;;;;;;;;2614331;54;20400;-86
2023/11/29 13:46:07;;;;;;;9.43;7.57;;;;;;;;;;2615050;54;20425;-85
2023/11/29 13:48:33;;;;;;;9.50;7.00;;;;;;;;;;2615870;54;20406;-86
2023/11/29 13:50:59;;;;;;;10.30;7.17;;;;;;;;;;2615577;54;20631;-85
2023/11/29 13:53:29;;;;;;;11.30;8.80;;;;;;;;;;2615365;54;20415;-85
2023/11/29 13:55:55;;;;;;;16.83;9.63;;;;;;;;;;2615508;54;20497;-85
2023/11/29 13:58:21;;;;;;;11.80;10.10;;;;;;;;;;2614990;50;20449;-84
2023/11/29 14:00:47;;;;;;;10.80;9.40;;;;;;;;;;2614775;47;20450;-83
2023/11/29 14:03:13;;;;;;;18.50;10.00;;;;;;;;;;2615702;39;20798;-86
2023/11/29 14:05:39;;;;;;;13.03;9.73;;;;;;;;;;2616083;54;20392;-85
2023/11/29 14:08:05;;;;;;;16.80;12.73;;;;;;;;;;2615728;54;20467;-85
2023/11/29 14:10:32;;;;;;;16.57;12.67;;;;;;;;;;2615331;54;20400;-84
2023/11/29 14:12:58;;;;;;;15.33;13.00;;;;;;;;;;2615998;47;20450;-83
2023/11/29 14:15:24;;;;;;;12.33;8.93;;;;;;;;;;2614598;39;20871;-73
2023/11/29 14:17:50;;;;;;;11.47;9.00;;;;;;;;;;2613743;39;21155;-73
2023/11/29 14:20:17;;;;;;;14.47;9.03;;;;;;;;;;2613856;54;20395;-72
2023/11/29 14:22:44;;;;;;;10.23;7.80;;;;;;;;;;2613124;54;20412;-73
2023/11/29 14:25:11;;;;;;;16.37;13.10;;;;;;;;;;2612957;54;20427;-72